Time;durP1;ratioP1;P1;durP2;ratioP2;P2;SDS_P1;SDS_P2;PMS_P1;PMS_P2;Temp;Humidity;BMP_temperature;BMP_pressure;BME280_temperature;BME280_humidity;BME280_pressure;Samples;Min_cycle;Max_cycle;Signal;HPM_P1;HPM_P2
2023/02/02 00:01:42;;;;;;;13.93;3.03;;;8.80;99.90;;;;;;5055854;28;20044;-48
2023/02/02 00:04:09;;;;;;;15.23;3.38;;;8.80;99.90;;;;;;5055825;28;20090;-50
2023/02/02 00:06:36;;;;;;;11.48;2.55;;;8.80;99.90;;;;;;5054043;28;20484;-51
2023/02/02 00:09:03;;;;;;;16.80;2.72;;;8.80;99.90;;;;;;5055187;28;20099;-53
2023/02/02 00:11:29;;;;;;;11.43;3.22;;;8.80;99.90;;;;;;5053880;28;20049;-53
2023/02/02 00:13:56;;;;;;;13.50;3.28;;;8.80;99.90;;;;;;5055415;28;20045;-52
2023/02/02 00:16:23;;;;;;;16.40;3.38;;;8.80;99.90;;;;;;5055462;28;20045;-51
2023/02/02 00:18:50;;;;;;;13.15;2.45;;;8.80;99.90;;;;;;5055469;28;20041;-54
2023/02/02 00:21:16;;;;;;;16.08;4.55;;;8.80;99.90;;;;;;5055011;28;20124;-50
2023/02/02 00:23:43;;;;;;;17.45;3.05;;;8.80;99.90;;;;;;5055150;28;20049;-50
2023/02/02 00:26:10;;;;;;;12.23;3.00;;;8.80;99.90;;;;;;5055221;28;20115;-54
2023/02/02 00:28:37;;;;;;;12.45;2.67;;;8.90;99.90;;;;;;5055438;28;20059;-52
2023/02/02 00:31:03;;;;;;;17.38;3.30;;;8.80;99.90;;;;;;5055143;28;20048;-51
2023/02/02 00:33:30;;;;;;;14.52;3.03;;;8.80;99.90;;;;;;5054906;28;20051;-52
2023/02/02 00:35:57;;;;;;;14.80;3.10;;;8.80;99.90;;;;;;5055041;28;20037;-53
2023/02/02 00:38:23;;;;;;;15.27;3.53;;;8.80;99.90;;;;;;5053753;28;20056;-55
2023/02/02 00:40:51;;;;;;;13.43;3.33;;;8.80;99.90;;;;;;5055305;28;20152;-51
2023/02/02 00:43:18;;;;;;;14.75;3.40;;;8.90;99.90;;;;;;5054589;28;20033;-52
2023/02/02 00:45:45;;;;;;;16.60;3.08;;;8.90;99.90;;;;;;5055119;28;20053;-52
2023/02/02 00:48:12;;;;;;;13.00;3.13;;;8.90;99.90;;;;;;5055090;28;20087;-52
2023/02/02 00:50:39;;;;;;;14.98;3.33;;;8.90;99.90;;;;;;5054617;28;20043;-53
2023/02/02 00:53:06;;;;;;;15.85;3.08;;;8.90;99.90;;;;;;5055000;28;20071;-55
2023/02/02 00:55:32;;;;;;;17.00;3.88;;;8.90;99.90;;;;;;5054756;28;20110;-50
2023/02/02 00:58:00;;;;;;;15.93;2.65;;;8.90;99.90;;;;;;5053226;28;20443;-53
2023/02/02 01:00:27;;;;;;;12.77;3.05;;;8.90;99.90;;;;;;5053311;28;20041;-55
2023/02/02 01:02:54;;;;;;;12.15;2.70;;;8.90;99.90;;;;;;5054486;28;20106;-55
2023/02/02 01:05:21;;;;;;;13.43;3.15;;;8.90;99.90;;;;;;5054531;28;20037;-50
2023/02/02 01:07:49;;;;;;;9.23;2.70;;;8.90;99.90;;;;;;5053123;28;20472;-48
2023/02/02 01:10:15;;;;;;;10.32;2.50;;;8.90;99.90;;;;;;5054308;28;20505;-50
2023/02/02 01:12:42;;;;;;;11.45;2.83;;;8.90;99.90;;;;;;5054645;28;20033;-54
2023/02/02 01:15:09;;;;;;;17.38;2.83;;;8.90;99.90;;;;;;5054292;28;20068;-52
2023/02/02 01:17:35;;;;;;;10.43;2.78;;;8.90;99.90;;;;;;5054145;28;20037;-52
2023/02/02 01:20:02;;;;;;;12.77;2.92;;;8.90;99.90;;;;;;5054089;28;20041;-48
2023/02/02 01:22:29;;;;;;;13.43;2.85;;;8.90;99.90;;;;;;5053234;28;20083;-54
2023/02/02 01:24:56;;;;;;;14.88;2.95;;;8.90;99.90;;;;;;5052933;28;20464;-53
2023/02/02 01:27:22;;;;;;;8.88;2.90;;;8.90;99.90;;;;;;5054088;28;20076;-54
2023/02/02 01:29:49;;;;;;;12.85;2.33;;;8.90;99.90;;;;;;5053155;28;20037;-48
2023/02/02 01:32:16;;;;;;;13.85;2.65;;;8.90;99.90;;;;;;5054253;28;20033;-55
2023/02/02 01:34:43;;;;;;;12.43;2.33;;;8.90;99.90;;;;;;5053998;28;20053;-52
2023/02/02 01:37:09;;;;;;;9.23;2.08;;;8.90;99.90;;;;;;5053625;28;20540;-53
2023/02/02 01:39:36;;;;;;;12.95;2.22;;;8.90;99.90;;;;;;5054029;28;20454;-52
2023/02/02 01:42:03;;;;;;;12.88;2.30;;;8.90;99.90;;;;;;5053898;28;20044;-53
2023/02/02 01:44:30;;;;;;;9.88;2.10;;;8.90;99.90;;;;;;5053820;28;20041;-54
2023/02/02 01:46:56;;;;;;;13.20;2.42;;;8.90;99.90;;;;;;5052140;28;20040;-51
2023/02/02 01:49:23;;;;;;;10.93;2.60;;;8.90;99.90;;;;;;5053870;28;20040;-49
2023/02/02 01:51:50;;;;;;;10.65;2.15;;;8.80;99.90;;;;;;5054097;28;20044;-51
2023/02/02 01:54:16;;;;;;;12.68;2.35;;;8.80;99.90;;;;;;5053899;28;20048;-49
2023/02/02 01:56:43;;;;;;;9.23;2.15;;;8.70;99.90;;;;;;5052409;28;20431;-50
2023/02/02 01:59:10;;;;;;;16.98;2.42;;;8.60;99.90;;;;;;5052222;28;20053;-54
2023/02/02 02:01:37;;;;;;;13.98;2.72;;;8.50;99.90;;;;;;5052403;28;20049;-51
2023/02/02 02:04:03;;;;;;;9.73;2.63;;;8.50;99.90;;;;;;5054177;28;20076;-49
2023/02/02 02:06:30;;;;;;;9.52;2.50;;;8.40;99.90;;;;;;5052413;28;20041;-51
2023/02/02 02:08:59;;;;;;;11.88;2.75;;;8.40;99.90;;;;;;5052104;28;20069;-52
2023/02/02 02:11:26;;;;;;;10.30;2.08;;;8.30;99.90;;;;;;5053522;28;20481;-50
2023/02/02 02:16:39;;;;;;;14.85;2.92;;;8.30;99.90;;;;;;5053443;28;20043;-51
2023/02/02 02:19:06;;;;;;;10.50;2.42;;;8.30;99.90;;;;;;5053168;28;20059;-48
2023/02/02 02:27:04;;;;;;;14.13;2.63;;;8.30;99.90;;;;;;5053280;28;20041;-50
2023/02/02 02:29:31;;;;;;;17.30;3.13;;;8.20;99.90;;;;;;5053564;28;20091;-47
2023/02/02 02:31:58;;;;;;;14.43;2.58;;;8.20;99.90;;;;;;5051698;28;20040;-48
2023/02/02 02:34:26;;;;;;;13.70;2.85;;;8.20;99.90;;;;;;5052913;28;20048;-53
2023/02/02 02:36:53;;;;;;;13.45;2.60;;;8.20;99.90;;;;;;5056984;28;20396;-48
2023/02/02 02:39:20;;;;;;;14.63;2.85;;;8.20;99.90;;;;;;5039393;28;20503;-48
2023/02/02 02:41:48;;;;;;;16.58;2.80;;;8.20;99.90;;;;;;5055885;28;20045;-48
2023/02/02 02:44:15;;;;;;;11.95;2.90;;;8.20;99.90;;;;;;5055617;28;20128;-48
2023/02/02 02:46:41;;;;;;;12.10;2.72;;;8.30;99.90;;;;;;5057141;28;20045;-54
2023/02/02 02:49:08;;;;;;;14.45;3.10;;;8.30;99.90;;;;;;5055469;28;20045;-53
2023/02/02 02:51:35;;;;;;;16.38;2.80;;;8.30;99.90;;;;;;5056020;28;20041;-52
2023/02/02 02:54:02;;;;;;;15.10;3.00;;;8.40;99.90;;;;;;5055257;28;20049;-52
2023/02/02 02:56:30;;;;;;;14.82;2.47;;;8.40;99.90;;;;;;5055114;28;20052;-51
2023/02/02 02:58:56;;;;;;;20.13;3.03;;;8.40;99.90;;;;;;5056907;28;20041;-53
2023/02/02 03:01:24;;;;;;;12.70;3.13;;;8.40;99.90;;;;;;5055492;28;20048;-51
2023/02/02 03:03:50;;;;;;;12.40;2.55;;;8.50;99.90;;;;;;5056967;28;20036;-50
2023/02/02 03:06:17;;;;;;;16.45;3.53;;;8.40;99.90;;;;;;5056449;28;20530;-54
2023/02/02 03:08:44;;;;;;;13.30;2.80;;;8.40;99.90;;;;;;5056838;28;20099;-55
2023/02/02 03:11:11;;;;;;;13.07;2.88;;;8.40;99.90;;;;;;5055758;28;20487;-49
2023/02/02 03:13:37;;;;;;;14.63;2.65;;;8.40;99.90;;;;;;5056920;28;20048;-53
2023/02/02 03:16:04;;;;;;;11.52;2.60;;;8.30;99.90;;;;;;5056417;28;20041;-52
2023/02/02 03:18:31;;;;;;;12.20;2.67;;;8.30;99.90;;;;;;5056358;28;20559;-52
2023/02/02 03:20:58;;;;;;;18.55;3.10;;;8.30;99.90;;;;;;5056691;28;20065;-52
2023/02/02 03:23:24;;;;;;;12.85;2.90;;;8.30;99.90;;;;;;5056772;28;20091;-54
2023/02/02 03:25:51;;;;;;;12.82;2.70;;;8.30;99.90;;;;;;5056766;28;20041;-49
2023/02/02 03:28:18;;;;;;;14.20;2.88;;;8.20;99.90;;;;;;5056430;28;20429;-53
2023/02/02 03:30:44;;;;;;;14.55;2.78;;;8.20;99.90;;;;;;5056496;28;20041;-53
2023/02/02 03:33:12;;;;;;;15.23;2.60;;;8.20;99.90;;;;;;5055094;28;20056;-53
2023/02/02 03:35:38;;;;;;;9.98;2.47;;;8.10;99.90;;;;;;5055380;28;20095;-55
2023/02/02 03:38:05;;;;;;;10.80;3.70;;;8.00;99.90;;;;;;5056412;28;20037;-54
2023/02/02 03:40:32;;;;;;;12.88;2.95;;;8.00;99.90;;;;;;5056282;28;20476;-53
2023/02/02 03:42:58;;;;;;;13.40;2.58;;;7.90;99.90;;;;;;5056162;28;20518;-50
2023/02/02 03:45:25;;;;;;;11.88;2.63;;;7.90;99.90;;;;;;5055421;28;20033;-56
2023/02/02 03:47:52;;;;;;;11.75;2.40;;;7.80;99.90;;;;;;5055858;28;20064;-51
2023/02/02 03:50:19;;;;;;;15.07;2.65;;;7.80;99.90;;;;;;5055802;28;20479;-54
2023/02/02 03:52:46;;;;;;;13.18;2.88;;;7.70;99.90;;;;;;5055609;28;20045;-51
2023/02/02 03:55:12;;;;;;;18.73;3.08;;;7.70;99.90;;;;;;5055618;28;20488;-54
2023/02/02 03:57:39;;;;;;;11.88;2.40;;;7.60;99.90;;;;;;5055929;28;20091;-51
2023/02/02 04:00:06;;;;;;;15.52;2.80;;;7.60;99.90;;;;;;5056041;28;20045;-51
2023/02/02 04:02:37;;;;;;;10.65;2.63;;;7.60;99.90;;;;;;5055853;28;20077;-50
2023/02/02 04:05:04;;;;;;;13.18;2.65;;;7.50;99.90;;;;;;5055653;28;20029;-54
2023/02/02 04:07:31;;;;;;;18.52;2.72;;;7.50;99.90;;;;;;5055899;28;20495;-56
2023/02/02 04:09:58;;;;;;;15.27;2.65;;;7.50;99.90;;;;;;5055787;28;20534;-50
2023/02/02 04:12:24;;;;;;;12.73;2.35;;;7.50;99.90;;;;;;5055547;28;20041;-55
2023/02/02 04:14:51;;;;;;;16.42;3.13;;;7.40;99.90;;;;;;5055939;28;20420;-52
2023/02/02 04:17:18;;;;;;;9.70;2.47;;;7.40;99.90;;;;;;5055362;28;20571;-54
2023/02/02 04:19:44;;;;;;;8.57;2.50;;;7.40;99.90;;;;;;5055061;28;20087;-55
2023/02/02 04:22:11;;;;;;;15.18;2.60;;;7.40;99.90;;;;;;5055453;28;20060;-56
2023/02/02 04:24:38;;;;;;;10.10;2.53;;;7.30;99.90;;;;;;5054348;28;20043;-52
2023/02/02 04:27:05;;;;;;;11.73;2.33;;;7.30;99.90;;;;;;5055300;28;20147;-51
2023/02/02 04:29:31;;;;;;;9.90;2.63;;;7.30;99.90;;;;;;5055388;28;20427;-53
2023/02/02 04:31:58;;;;;;;10.68;2.35;;;7.30;99.90;;;;;;5055276;28;20044;-53
2023/02/02 04:34:25;;;;;;;10.65;2.00;;;7.30;99.90;;;;;;5055481;28;20040;-55
2023/02/02 04:36:52;;;;;;;10.27;2.28;;;7.30;99.90;;;;;;5055090;28;20076;-52
2023/02/02 04:39:18;;;;;;;11.98;3.10;;;7.30;99.90;;;;;;5055107;28;20037;-56
2023/02/02 04:41:45;;;;;;;13.35;2.22;;;7.30;99.90;;;;;;5055036;28;20435;-53
2023/02/02 04:44:13;;;;;;;14.40;2.65;;;7.30;99.90;;;;;;5054904;28;20101;-52
2023/02/02 04:46:39;;;;;;;10.18;2.75;;;7.30;99.90;;;;;;5054590;28;20098;-53
2023/02/02 04:49:06;;;;;;;11.50;2.45;;;7.30;99.90;;;;;;5054932;28;20075;-54
2023/02/02 04:51:33;;;;;;;12.13;2.33;;;7.20;99.90;;;;;;5054753;28;20052;-52
2023/02/02 04:53:59;;;;;;;10.13;2.50;;;7.20;99.90;;;;;;5055168;28;20049;-54
2023/02/02 04:56:27;;;;;;;11.85;2.78;;;7.20;99.90;;;;;;5054327;28;20037;-55
2023/02/02 04:58:57;;;;;;;14.57;2.13;;;7.20;99.90;;;;;;5054322;28;20138;-54
2023/02/02 05:01:24;;;;;;;15.75;2.38;;;7.10;99.90;;;;;;5055016;28;20052;-53
2023/02/02 05:03:51;;;;;;;13.93;2.83;;;7.10;99.90;;;;;;5054665;28;20090;-51
2023/02/02 05:06:18;;;;;;;11.48;2.53;;;7.10;99.90;;;;;;5054512;28;20128;-55
2023/02/02 05:08:46;;;;;;;15.50;3.25;;;7.10;99.90;;;;;;5054738;28;20045;-54
2023/02/02 05:11:13;;;;;;;11.43;2.30;;;7.10;99.90;;;;;;5054359;28;20037;-52
2023/02/02 05:13:40;;;;;;;9.90;2.13;;;7.10;99.90;;;;;;5053879;28;20107;-52
2023/02/02 05:16:06;;;;;;;10.90;2.30;;;7.00;99.90;;;;;;5054369;28;20454;-50
2023/02/02 05:18:33;;;;;;;7.85;2.42;;;7.00;99.90;;;;;;5054205;28;20063;-52
2023/02/02 05:21:00;;;;;;;11.95;2.75;;;7.00;99.90;;;;;;5054219;28;20047;-54
2023/02/02 05:23:27;;;;;;;10.00;2.33;;;7.00;99.90;;;;;;5054218;28;20045;-55
2023/02/02 05:25:54;;;;;;;11.07;2.20;;;7.00;99.90;;;;;;5053526;28;20454;-52
2023/02/02 05:28:20;;;;;;;9.95;2.17;;;6.90;99.90;;;;;;5052706;28;20049;-54
2023/02/02 05:30:47;;;;;;;11.23;3.00;;;6.90;99.90;;;;;;5053231;28;20447;-53
2023/02/02 05:33:14;;;;;;;10.00;2.28;;;6.90;99.90;;;;;;5053991;28;20056;-52
2023/02/02 05:35:41;;;;;;;11.07;2.53;;;6.90;99.90;;;;;;5053893;28;20041;-50
2023/02/02 05:38:07;;;;;;;14.05;2.90;;;6.90;99.90;;;;;;5053848;28;20064;-54
2023/02/02 05:40:34;;;;;;;12.35;2.20;;;6.90;99.90;;;;;;5054161;28;20045;-52
2023/02/02 05:43:01;;;;;;;13.85;2.65;;;6.80;99.90;;;;;;5053942;28;20459;-52
2023/02/02 05:45:28;;;;;;;11.27;2.45;;;6.80;99.90;;;;;;5052520;28;20041;-50
2023/02/02 05:47:54;;;;;;;11.38;2.10;;;6.80;99.90;;;;;;5053618;28;20080;-50
2023/02/02 05:50:21;;;;;;;10.65;2.17;;;6.80;99.90;;;;;;5053803;28;20115;-50
2023/02/02 05:53:00;;;;;;;12.80;2.30;;;6.80;99.90;;;;;;5053846;28;20072;-50
2023/02/02 05:55:27;;;;;;;14.88;3.08;;;6.80;99.90;;;;;;5053912;28;20484;-50
2023/02/02 05:57:53;;;;;;;9.05;2.22;;;6.70;99.90;;;;;;5053779;28;20048;-54
2023/02/02 06:00:20;;;;;;;14.80;2.35;;;6.70;99.90;;;;;;5053533;28;20526;-52
2023/02/02 06:02:47;;;;;;;13.38;2.33;;;6.70;99.90;;;;;;5053878;28;20102;-53
2023/02/02 06:05:14;;;;;;;11.02;2.42;;;6.70;99.90;;;;;;5053843;28;20033;-55
2023/02/02 06:07:40;;;;;;;12.93;2.63;;;6.70;99.90;;;;;;5053231;28;20087;-48
2023/02/02 06:10:07;;;;;;;12.52;2.63;;;6.70;99.90;;;;;;5053281;28;20064;-51
2023/02/02 06:12:34;;;;;;;10.65;2.38;;;6.70;99.90;;;;;;5053426;28;20045;-54
2023/02/02 06:15:01;;;;;;;11.95;2.20;;;6.70;99.90;;;;;;5053886;28;20072;-51
2023/02/02 06:17:27;;;;;;;15.23;2.75;;;6.70;99.90;;;;;;5053467;28;20052;-53
2023/02/02 06:19:54;;;;;;;9.63;2.10;;;6.70;99.90;;;;;;5053285;28;20111;-53
2023/02/02 06:22:21;;;;;;;13.60;2.25;;;6.70;99.90;;;;;;5051928;28;20041;-54
2023/02/02 06:24:48;;;;;;;11.27;2.20;;;6.70;99.90;;;;;;5053094;28;20041;-54
2023/02/02 06:27:14;;;;;;;10.45;2.72;;;6.70;99.90;;;;;;5053096;28;20045;-53
2023/02/02 06:29:41;;;;;;;14.57;2.63;;;6.70;99.90;;;;;;5053434;28;20037;-53
2023/02/02 06:32:08;;;;;;;10.27;2.80;;;6.70;99.90;;;;;;5053065;28;20122;-54
2023/02/02 06:34:35;;;;;;;11.18;2.35;;;6.70;99.90;;;;;;5053439;28;20120;-54
2023/02/02 06:37:01;;;;;;;10.43;2.33;;;6.70;99.90;;;;;;5053489;28;20472;-48
2023/02/02 06:39:28;;;;;;;8.35;2.03;;;6.70;99.90;;;;;;5053401;28;20045;-51
2023/02/02 06:41:55;;;;;;;10.02;2.28;;;6.70;99.90;;;;;;5053519;28;20128;-55
2023/02/02 06:44:21;;;;;;;9.95;2.25;;;6.70;99.90;;;;;;5053503;28;20052;-57
2023/02/02 06:46:48;;;;;;;13.77;2.25;;;6.70;99.90;;;;;;5052901;28;20059;-53
2023/02/02 06:49:15;;;;;;;10.27;1.92;;;6.70;99.90;;;;;;5053108;28;20392;-50
2023/02/02 06:51:42;;;;;;;9.32;2.17;;;6.70;99.90;;;;;;5051929;28;20180;-53
2023/02/02 06:54:08;;;;;;;13.70;2.03;;;6.70;99.90;;;;;;5053117;28;20060;-51
2023/02/02 06:56:35;;;;;;;11.55;1.90;;;6.70;99.90;;;;;;5052711;28;20472;-53
2023/02/02 06:59:02;;;;;;;7.47;1.45;;;6.70;99.90;;;;;;5053325;28;20068;-52
2023/02/02 07:01:29;;;;;;;7.50;2.47;;;6.70;99.90;;;;;;5052679;28;20087;-54
2023/02/02 07:03:55;;;;;;;9.30;1.70;;;6.70;99.90;;;;;;5052720;28;20037;-55
2023/02/02 07:06:22;;;;;;;13.60;2.17;;;6.70;99.90;;;;;;5052893;28;20092;-52
2023/02/02 07:08:49;;;;;;;10.80;2.05;;;6.70;99.90;;;;;;5052718;28;20476;-54
2023/02/02 07:11:28;;;;;;;12.57;1.85;;;6.70;99.90;;;;;;5052869;28;20056;-53
2023/02/02 07:13:55;;;;;;;11.73;2.22;;;6.70;99.90;;;;;;5051528;28;20079;-50
2023/02/02 07:16:22;;;;;;;10.05;2.05;;;6.70;99.90;;;;;;5052620;28;20365;-53
2023/02/02 07:18:49;;;;;;;6.78;1.77;;;6.70;99.90;;;;;;5052363;28;20076;-54
2023/02/02 07:21:16;;;;;;;10.25;1.98;;;6.70;99.90;;;;;;5054891;28;20053;-49
2023/02/02 07:23:42;;;;;;;11.18;2.03;;;6.70;99.90;;;;;;5056317;28;20075;-54
2023/02/02 07:26:09;;;;;;;8.65;2.22;;;6.70;99.90;;;;;;5056264;28;20477;-52
2023/02/02 07:28:36;;;;;;;7.20;1.90;;;6.70;99.90;;;;;;5055082;28;20091;-50
2023/02/02 07:31:03;;;;;;;7.47;1.50;;;6.60;99.90;;;;;;5056116;28;20528;-52
2023/02/02 07:33:29;;;;;;;10.63;1.88;;;6.70;99.90;;;;;;5056281;28;20049;-52
2023/02/02 07:35:56;;;;;;;12.40;2.50;;;6.60;99.90;;;;;;5056087;28;20041;-54
2023/02/02 07:38:23;;;;;;;9.73;1.83;;;6.60;99.90;;;;;;5055908;28;20049;-52
2023/02/02 07:40:49;;;;;;;13.65;2.20;;;6.70;99.90;;;;;;5056011;28;20069;-56
2023/02/02 07:43:18;;;;;;;9.48;1.80;;;6.60;99.90;;;;;;5055925;28;20036;-53
2023/02/02 07:45:45;;;;;;;13.32;2.58;;;6.70;99.90;;;;;;5056464;28;20075;-54
2023/02/02 07:48:11;;;;;;;7.15;1.63;;;6.70;99.90;;;;;;5055964;28;20095;-51
2023/02/02 07:50:38;;;;;;;7.40;1.35;;;6.70;99.90;;;;;;5056153;28;20362;-51
2023/02/02 07:53:05;;;;;;;13.77;2.83;;;6.70;99.90;;;;;;5055863;28;20080;-54
2023/02/02 07:55:31;;;;;;;15.77;2.75;;;6.70;99.90;;;;;;5055649;28;20554;-54
2023/02/02 07:57:58;;;;;;;16.90;3.08;;;6.80;99.90;;;;;;5055393;28;20090;-55
2023/02/02 08:00:25;;;;;;;6.82;1.73;;;6.80;99.90;;;;;;5055369;28;20049;-54
2023/02/02 08:02:52;;;;;;;11.20;2.00;;;6.90;99.90;;;;;;5055435;28;20075;-49
2023/02/02 08:05:21;;;;;;;11.10;2.33;;;6.90;99.90;;;;;;5055714;28;20033;-55
2023/02/02 08:07:48;;;;;;;10.50;1.80;;;6.90;99.90;;;;;;5054271;28;20049;-55
2023/02/02 08:10:15;;;;;;;11.55;2.10;;;6.90;99.90;;;;;;5054519;28;20041;-49
2023/02/02 08:12:42;;;;;;;11.60;2.75;;;6.90;99.90;;;;;;5055320;28;20091;-53
2023/02/02 08:15:08;;;;;;;10.20;2.03;;;7.00;99.90;;;;;;5055354;28;20495;-54
2023/02/02 08:17:38;;;;;;;13.32;2.30;;;7.00;99.90;;;;;;5055233;28;20037;-52
2023/02/02 08:20:05;;;;;;;8.57;2.65;;;7.10;99.90;;;;;;5055146;28;20061;-54
2023/02/02 08:22:31;;;;;;;14.32;2.10;;;7.20;99.90;;;;;;5055267;28;20037;-53
2023/02/02 08:24:58;;;;;;;17.33;2.45;;;7.30;99.90;;;;;;5055510;28;20037;-53
2023/02/02 08:27:25;;;;;;;11.43;3.15;;;7.40;99.90;;;;;;5054431;28;20560;-52
2023/02/02 08:29:51;;;;;;;17.23;12.10;;;7.40;99.90;;;;;;5054915;28;20048;-50
2023/02/02 08:32:18;;;;;;;25.05;3.33;;;7.50;99.90;;;;;;5054586;28;20087;-51
2023/02/02 08:34:45;;;;;;;7.85;2.30;;;7.50;99.90;;;;;;5054817;28;20493;-55
2023/02/02 08:37:12;;;;;;;10.32;2.03;;;7.60;99.90;;;;;;5054871;28;20083;-49
2023/02/02 08:39:38;;;;;;;44.03;4.30;;;7.70;99.90;;;;;;5053523;28;20079;-56
2023/02/02 08:42:05;;;;;;;5.90;1.75;;;7.70;99.90;;;;;;5052973;28;20041;-54
2023/02/02 08:44:32;;;;;;;10.25;2.40;;;7.80;99.90;;;;;;5053218;28;20041;-53
2023/02/02 08:47:18;;;;;;;12.00;3.10;;;7.80;99.90;;;;;;5053742;28;20115;-54
2023/02/02 08:49:46;;;;;;;14.15;3.08;;;7.90;99.90;;;;;;5053762;28;20033;-54
2023/02/02 08:52:12;;;;;;;12.00;2.30;;;8.00;99.90;;;;;;5053791;28;20128;-50
2023/02/02 08:54:39;;;;;;;8.65;2.40;;;8.00;99.90;;;;;;5052928;28;20468;-50
2023/02/02 08:57:06;;;;;;;9.73;2.05;;;8.00;99.90;;;;;;5054342;28;20469;-52
2023/02/02 08:59:33;;;;;;;14.57;2.13;;;8.10;99.90;;;;;;5054938;28;20067;-49
2023/02/02 09:01:59;;;;;;;10.02;1.80;;;8.10;99.90;;;;;;5053121;28;20492;-53
2023/02/02 09:04:26;;;;;;;10.85;1.92;;;8.20;99.90;;;;;;5054255;28;20041;-50
2023/02/02 09:06:53;;;;;;;8.88;1.80;;;8.30;99.90;;;;;;5054081;28;20136;-55
2023/02/02 09:09:20;;;;;;;7.97;1.85;;;8.30;99.90;;;;;;5054371;28;20044;-51
2023/02/02 09:11:47;;;;;;;7.03;2.28;;;8.40;99.90;;;;;;5054381;28;20041;-53
2023/02/02 09:14:13;;;;;;;7.35;2.13;;;8.40;99.90;;;;;;5054117;28;20045;-49
2023/02/02 09:16:40;;;;;;;6.25;1.73;;;8.40;99.90;;;;;;5053920;28;20558;-50
2023/02/02 09:19:07;;;;;;;6.28;1.50;;;8.40;99.90;;;;;;5053946;28;20053;-50
2023/02/02 09:21:35;;;;;;;9.70;1.95;;;8.40;99.90;;;;;;5053956;28;20045;-56
2023/02/02 09:24:02;;;;;;;8.00;1.80;;;8.40;99.90;;;;;;5054081;28;20132;-50
2023/02/02 09:26:29;;;;;;;9.90;1.90;;;8.40;99.90;;;;;;5053943;28;20451;-51
2023/02/02 09:28:56;;;;;;;8.35;2.15;;;8.40;99.90;;;;;;5053732;28;20045;-50
2023/02/02 09:31:23;;;;;;;7.22;1.80;;;8.40;99.90;;;;;;5053881;28;20033;-54
2023/02/02 09:33:50;;;;;;;6.70;1.90;;;8.40;99.90;;;;;;5053860;28;20128;-52
2023/02/02 09:36:16;;;;;;;8.23;2.50;;;8.40;99.90;;;;;;5053897;28;20523;-55
2023/02/02 09:38:43;;;;;;;9.45;2.20;;;8.40;99.90;;;;;;5054048;28;20404;-53
2023/02/02 09:41:10;;;;;;;7.65;1.80;;;8.50;99.90;;;;;;5053635;28;20125;-51
2023/02/02 09:43:37;;;;;;;9.45;1.52;;;8.50;99.90;;;;;;5053074;28;20103;-51
2023/02/02 09:46:03;;;;;;;9.15;1.48;;;8.50;99.90;;;;;;5053875;28;20045;-54
2023/02/02 09:48:30;;;;;;;8.57;1.65;;;8.60;99.90;;;;;;5053779;28;20041;-49
2023/02/02 09:50:57;;;;;;;6.10;1.65;;;8.60;99.90;;;;;;5053504;28;20045;-48
2023/02/02 09:53:24;;;;;;;8.90;2.42;;;8.60;99.90;;;;;;5052773;28;20388;-48
2023/02/02 09:55:51;;;;;;;8.90;2.15;;;8.70;99.90;;;;;;5053579;28;20091;-47
2023/02/02 09:58:18;;;;;;;5.60;1.92;;;8.70;99.90;;;;;;5053549;28;20397;-54
2023/02/02 10:00:45;;;;;;;5.65;2.08;;;8.70;99.90;;;;;;5052540;28;20388;-48
2023/02/02 10:03:11;;;;;;;15.70;2.55;;;8.70;99.90;;;;;;5053021;28;20071;-55
2023/02/02 10:05:38;;;;;;;7.80;1.83;;;8.70;99.90;;;;;;5053668;28;20091;-54
2023/02/02 10:08:05;;;;;;;3.92;1.45;;;8.80;99.90;;;;;;5052989;28;20048;-55
2023/02/02 10:10:32;;;;;;;8.02;1.63;;;8.90;99.90;;;;;;5053063;28;20499;-50
2023/02/02 10:12:58;;;;;;;6.88;1.85;;;8.90;99.90;;;;;;5053038;28;20045;-53
2023/02/02 10:15:25;;;;;;;7.55;2.22;;;9.00;99.90;;;;;;5053057;28;20049;-55
2023/02/02 10:17:52;;;;;;;25.15;2.80;;;9.00;99.90;;;;;;5053513;28;20068;-55
2023/02/02 10:20:19;;;;;;;7.50;1.83;;;9.00;99.90;;;;;;5053294;28;20084;-53
2023/02/02 10:22:46;;;;;;;6.70;2.20;;;9.00;99.90;;;;;;5053756;28;20053;-51
2023/02/02 10:25:13;;;;;;;5.95;1.55;;;9.10;99.90;;;;;;5053240;28;20033;-51
2023/02/02 10:27:39;;;;;;;9.05;2.13;;;9.20;99.90;;;;;;5053114;28;20072;-54
2023/02/02 10:30:06;;;;;;;5.07;1.60;;;9.20;99.90;;;;;;5053196;28;20063;-53
2023/02/02 10:32:33;;;;;;;9.13;1.80;;;9.30;99.90;;;;;;5053216;28;20037;-51
2023/02/02 10:34:59;;;;;;;5.75;1.30;;;9.40;99.90;;;;;;5052891;28;20048;-52
2023/02/02 10:37:39;;;;;;;13.95;2.05;;;9.40;99.90;;;;;;5053126;28;20041;-55
2023/02/02 10:40:06;;;;;;;4.95;1.63;;;9.50;99.90;;;;;;5052734;28;20048;-54
2023/02/02 10:42:33;;;;;;;7.70;1.70;;;9.50;99.90;;;;;;5053203;28;20033;-55
2023/02/02 10:45:00;;;;;;;3.78;1.60;;;9.60;99.90;;;;;;5051834;28;20052;-54
2023/02/02 10:47:26;;;;;;;6.57;1.40;;;9.70;99.90;;;;;;5052692;28;20060;-53
2023/02/02 10:49:53;;;;;;;4.45;1.65;;;9.80;99.90;;;;;;5053212;28;20054;-52
2023/02/02 10:52:22;;;;;;;36.03;3.13;;;9.90;99.90;;;;;;5052679;28;20052;-56
2023/02/02 10:54:48;;;;;;;8.48;1.75;;;10.10;99.90;;;;;;5052774;28;20041;-52
2023/02/02 10:57:23;;;;;;;5.15;1.77;;;10.20;99.90;;;;;;5056420;28;20052;-56
2023/02/02 10:59:49;;;;;;;6.65;1.55;;;10.20;99.90;;;;;;5056771;28;20045;-54
2023/02/02 11:02:16;;;;;;;10.38;2.00;;;10.40;99.90;;;;;;5056698;28;20451;-55
2023/02/02 11:07:32;;;;;;;20.23;5.30;;;10.40;99.90;;;;;;5056383;28;20041;-51
2023/02/02 11:09:59;;;;;;;8.65;2.35;;;10.40;99.90;;;;;;5056790;28;20079;-50
2023/02/02 11:12:26;;;;;;;5.78;1.95;;;10.40;99.90;;;;;;5056355;28;20059;-51
2023/02/02 11:14:53;;;;;;;7.32;2.20;;;10.40;99.90;;;;;;5056617;28;20117;-57
2023/02/02 11:17:19;;;;;;;7.57;1.63;;;10.40;99.90;;;;;;5056301;28;20098;-51
2023/02/02 11:19:46;;;;;;;6.55;2.10;;;10.50;99.90;;;;;;5056345;28;20076;-55
2023/02/02 11:22:13;;;;;;;5.65;1.50;;;10.60;99.90;;;;;;5056606;28;20115;-51
2023/02/02 11:24:40;;;;;;;7.22;1.90;;;10.70;99.90;;;;;;5055183;28;20048;-52
2023/02/02 11:27:07;;;;;;;5.07;1.50;;;10.80;99.90;;;;;;5056247;28;20040;-53
2023/02/02 11:29:37;;;;;;;7.55;1.50;;;10.80;99.90;;;;;;5056189;28;20041;-54
2023/02/02 11:32:04;;;;;;;9.90;1.58;;;10.70;99.90;;;;;;5056332;28;20033;-56
2023/02/02 11:34:30;;;;;;;17.77;1.77;;;10.70;99.90;;;;;;5056096;28;20041;-53
2023/02/02 11:36:57;;;;;;;6.35;1.42;;;10.60;99.90;;;;;;5056111;28;20106;-53
2023/02/02 11:39:25;;;;;;;5.95;1.48;;;10.60;99.90;;;;;;5056241;28;20074;-55
2023/02/02 11:41:51;;;;;;;5.07;1.48;;;10.60;99.90;;;;;;5056181;28;20041;-56
2023/02/02 11:44:18;;;;;;;3.80;1.33;;;10.50;99.90;;;;;;5056041;28;20049;-56
2023/02/02 11:46:45;;;;;;;5.68;1.45;;;10.60;99.90;;;;;;5055973;28;20074;-55
2023/02/02 11:49:12;;;;;;;6.00;1.15;;;10.60;99.90;;;;;;5056098;28;20033;-53
2023/02/02 11:51:39;;;;;;;5.65;1.75;;;10.60;99.90;;;;;;5056149;28;20037;-53
2023/02/02 11:54:05;;;;;;;13.00;2.33;;;10.70;99.90;;;;;;5038014;28;20095;-54
2023/02/02 11:56:32;;;;;;;7.47;1.58;;;10.80;99.90;;;;;;5055519;28;20037;-55
2023/02/02 11:59:02;;;;;;;8.55;2.05;;;10.90;99.90;;;;;;5056007;28;20068;-55
2023/02/02 12:01:29;;;;;;;8.73;1.70;;;10.90;99.90;;;;;;5055602;28;20075;-49
2023/02/02 12:03:56;;;;;;;7.05;1.38;;;10.90;99.90;;;;;;5055598;28;20095;-55
2023/02/02 12:06:22;;;;;;;6.80;1.65;;;10.90;99.90;;;;;;5054965;28;20061;-54
2023/02/02 12:08:49;;;;;;;8.30;1.73;;;10.90;99.90;;;;;;5055764;28;20049;-53
2023/02/02 12:11:16;;;;;;;7.07;1.75;;;10.80;99.90;;;;;;5055708;28;20120;-50
2023/02/02 12:13:43;;;;;;;5.80;1.60;;;10.80;99.90;;;;;;5055697;28;20044;-54
2023/02/02 12:16:09;;;;;;;7.57;1.52;;;10.80;99.90;;;;;;5055535;28;20045;-54
2023/02/02 12:18:37;;;;;;;6.95;1.90;;;10.90;99.90;;;;;;5055586;28;20107;-56
2023/02/02 12:21:03;;;;;;;13.43;1.90;;;10.90;99.90;;;;;;5055621;28;20041;-55
2023/02/02 12:23:30;;;;;;;15.98;3.13;;;11.00;99.90;;;;;;5055220;28;20060;-56
2023/02/02 12:25:57;;;;;;;16.35;3.03;;;11.00;99.90;;;;;;5054249;28;20040;-55
2023/02/02 12:28:24;;;;;;;8.02;1.48;;;11.00;99.90;;;;;;5055336;28;20118;-52
2023/02/02 12:30:51;;;;;;;11.32;1.90;;;11.00;99.90;;;;;;5053652;28;20439;-55
2023/02/02 12:33:18;;;;;;;8.65;1.88;;;11.00;99.90;;;;;;5054785;28;20492;-55
2023/02/02 12:35:45;;;;;;;8.32;2.03;;;11.00;99.90;;;;;;5055049;28;20454;-56
2023/02/02 12:38:11;;;;;;;6.78;1.40;;;11.00;99.90;;;;;;5055172;28;20041;-53
2023/02/02 12:40:38;;;;;;;25.77;8.15;;;11.10;99.90;;;;;;5054078;28;20037;-51
2023/02/02 12:43:05;;;;;;;6.00;2.38;;;11.20;99.90;;;;;;5054791;28;20044;-54
2023/02/02 12:45:32;;;;;;;6.38;1.90;;;11.20;99.90;;;;;;5055134;28;20043;-56
2023/02/02 12:47:59;;;;;;;4.93;1.80;;;11.20;99.90;;;;;;5055264;28;20033;-51
2023/02/02 12:50:26;;;;;;;6.15;1.50;;;11.20;99.90;;;;;;5053493;28;20083;-50
2023/02/02 12:52:53;;;;;;;4.18;1.30;;;11.20;99.90;;;;;;5059882;28;20427;-52
2023/02/02 12:55:19;;;;;;;9.43;1.58;;;11.20;99.90;;;;;;5063247;28;20052;-51
2023/02/02 12:57:46;;;;;;;7.90;1.85;;;11.20;99.90;;;;;;5067435;28;20051;-50